Jayess, Mississippi
Current Conditions -  °F | °C
As of 9:53 AM on Thursday 29 Jan 2015 (Local Time) from KMCB Reporting Station
Overcast Overcast  
Wind Chill: 59°   Ceiling: 1900
Heat Index: 59°   Visibility: 10mi
Dew Point: 52°   Wind: 6mph
Humidity: 78%   Direction: 220°SW
Pressure: 30.27"   Gusts: NA
Location:  31.36°N, 90.21°W
Report Text: KMCB 291553Z AUTO 22005KT 10SM OVC019 15/11 A3027 RMK AO2 SLP247 T01500111
Loading
Personal Weather Stations






























Interactive Weather Map New forecast layout! Learn more

10-Day Weather Forecast

Advertisements
Track Severe Weather on mobile